sensor_id;sensor_type;location;lat;lon;timestamp;temperature;humidity
1361;DHT22;674;45.552;-122.600;2022-09-16T00:01:18;22.70;1.00
1361;DHT22;674;45.552;-122.600;2022-09-16T00:03:47;22.70;1.00
1361;DHT22;674;45.552;-122.600;2022-09-16T00:06:22;22.80;1.00
1361;DHT22;674;45.552;-122.600;2022-09-16T00:08:52;22.90;1.00
1361;DHT22;674;45.552;-122.600;2022-09-16T00:11:22;22.90;1.00
1361;DHT22;674;45.552;-122.600;2022-09-16T00:13:50;22.90;1.00
1361;DHT22;674;45.552;-122.600;2022-09-16T00:16:22;23.00;1.00
1361;DHT22;674;45.552;-122.600;2022-09-16T00:18:56;23.20;1.00
1361;DHT22;674;45.552;-122.600;2022-09-16T00:21:25;23.40;1.00
1361;DHT22;674;45.552;-122.600;2022-09-16T00:23:55;23.30;1.00
1361;DHT22;674;45.552;-122.600;2022-09-16T00:26:23;23.50;1.00
1361;DHT22;674;45.552;-122.600;2022-09-16T00:28:53;23.50;1.00
1361;DHT22;674;45.552;-122.600;2022-09-16T00:31:21;23.70;1.00
1361;DHT22;674;45.552;-122.600;2022-09-16T00:33:50;23.60;1.00
1361;DHT22;674;45.552;-122.600;2022-09-16T00:36:19;23.30;1.00
1361;DHT22;674;45.552;-122.600;2022-09-16T00:38:51;23.40;1.00
1361;DHT22;674;45.552;-122.600;2022-09-16T00:41:27;23.40;1.00
1361;DHT22;674;45.552;-122.600;2022-09-16T00:47:13;23.10;1.00
1361;DHT22;674;45.552;-122.600;2022-09-16T00:49:43;23.10;1.00
1361;DHT22;674;45.552;-122.600;2022-09-16T00:52:12;22.90;1.00
1361;DHT22;674;45.552;-122.600;2022-09-16T00:54:42;22.80;1.00
1361;DHT22;674;45.552;-122.600;2022-09-16T00:57:12;22.70;1.00
1361;DHT22;674;45.552;-122.600;2022-09-16T00:59:45;22.70;1.00
1361;DHT22;674;45.552;-122.600;2022-09-16T01:02:16;22.60;1.00
1361;DHT22;674;45.552;-122.600;2022-09-16T01:05:10;22.60;1.00
1361;DHT22;674;45.552;-122.600;2022-09-16T01:07:43;22.50;1.00
1361;DHT22;674;45.552;-122.600;2022-09-16T01:10:14;22.30;1.00
1361;DHT22;674;45.552;-122.600;2022-09-16T01:12:45;22.20;1.00
1361;DHT22;674;45.552;-122.600;2022-09-16T01:15:15;22.00;1.00
1361;DHT22;674;45.552;-122.600;2022-09-16T01:23:35;21.70;1.00
1361;DHT22;674;45.552;-122.600;2022-09-16T01:31:53;21.30;1.00
1361;DHT22;674;45.552;-122.600;2022-09-16T01:34:57;21.30;1.00
1361;DHT22;674;45.552;-122.600;2022-09-16T01:40:19;21.00;1.00
1361;DHT22;674;45.552;-122.600;2022-09-16T01:43:18;20.90;1.00
1361;DHT22;674;45.552;-122.600;2022-09-16T01:51:15;20.70;1.00
1361;DHT22;674;45.552;-122.600;2022-09-16T01:59:17;20.30;1.00
1361;DHT22;674;45.552;-122.600;2022-09-16T02:02:00;20.20;1.00
1361;DHT22;674;45.552;-122.600;2022-09-16T02:04:37;20.10;1.00
1361;DHT22;674;45.552;-122.600;2022-09-16T02:07:09;20.10;1.00
1361;DHT22;674;45.552;-122.600;2022-09-16T02:09:41;20.00;1.00
1361;DHT22;674;45.552;-122.600;2022-09-16T02:12:14;20.10;1.00
1361;DHT22;674;45.552;-122.600;2022-09-16T02:14:47;20.10;1.00
1361;DHT22;674;45.552;-122.600;2022-09-16T02:17:20;20.00;1.00
1361;DHT22;674;45.552;-122.600;2022-09-16T02:22:47;20.00;1.00
1361;DHT22;674;45.552;-122.600;2022-09-16T02:25:16;19.90;1.00
1361;DHT22;674;45.552;-122.600;2022-09-16T02:27:46;19.90;1.00
1361;DHT22;674;45.552;-122.600;2022-09-16T02:30:20;19.80;1.00
1361;DHT22;674;45.552;-122.600;2022-09-16T02:33:05;19.80;1.00
1361;DHT22;674;45.552;-122.600;2022-09-16T02:35:36;19.80;1.00
1361;DHT22;674;45.552;-122.600;2022-09-16T02:38:13;19.80;1.00
1361;DHT22;674;45.552;-122.600;2022-09-16T02:40:59;19.70;1.00
1361;DHT22;674;45.552;-122.600;2022-09-16T02:43:29;19.70;1.00
1361;DHT22;674;45.552;-122.600;2022-09-16T02:56:54;19.70;1.00
1361;DHT22;674;45.552;-122.600;2022-09-16T02:59:23;19.80;1.00
1361;DHT22;674;45.552;-122.600;2022-09-16T03:01:52;19.70;1.00
1361;DHT22;674;45.552;-122.600;2022-09-16T03:04:21;19.60;1.00
1361;DHT22;674;45.552;-122.600;2022-09-16T03:06:49;19.60;1.00
1361;DHT22;674;45.552;-122.600;2022-09-16T03:09:18;19.70;1.00
1361;DHT22;674;45.552;-122.600;2022-09-16T03:14:56;19.50;1.00
1361;DHT22;674;45.552;-122.600;2022-09-16T03:34:12;19.50;1.00
1361;DHT22;674;45.552;-122.600;2022-09-16T03:37:07;19.40;1.00
1361;DHT22;674;45.552;-122.600;2022-09-16T03:39:35;19.50;1.00
1361;DHT22;674;45.552;-122.600;2022-09-16T03:42:06;19.50;1.00
1361;DHT22;674;45.552;-122.600;2022-09-16T03:44:38;19.50;1.00
1361;DHT22;674;45.552;-122.600;2022-09-16T03:47:07;19.30;1.00
1361;DHT22;674;45.552;-122.600;2022-09-16T03:49:36;19.30;1.00
1361;DHT22;674;45.552;-122.600;2022-09-16T03:52:05;19.30;1.00
1361;DHT22;674;45.552;-122.600;2022-09-16T03:54:35;19.20;1.00
1361;DHT22;674;45.552;-122.600;2022-09-16T03:57:04;19.20;1.00
1361;DHT22;674;45.552;-122.600;2022-09-16T03:59:33;19.00;1.00
1361;DHT22;674;45.552;-122.600;2022-09-16T04:02:01;19.00;1.00
1361;DHT22;674;45.552;-122.600;2022-09-16T04:04:30;18.90;1.00
1361;DHT22;674;45.552;-122.600;2022-09-16T04:06:58;18.80;1.00
1361;DHT22;674;45.552;-122.600;2022-09-16T04:09:26;18.90;1.00
1361;DHT22;674;45.552;-122.600;2022-09-16T04:11:55;18.80;1.00
1361;DHT22;674;45.552;-122.600;2022-09-16T04:14:23;18.90;1.00
1361;DHT22;674;45.552;-122.600;2022-09-16T04:16:53;18.70;1.00
1361;DHT22;674;45.552;-122.600;2022-09-16T04:19:22;18.60;1.00
1361;DHT22;674;45.552;-122.600;2022-09-16T04:21:51;18.60;1.00
1361;DHT22;674;45.552;-122.600;2022-09-16T04:24:20;18.60;1.00
1361;DHT22;674;45.552;-122.600;2022-09-16T04:26:48;18.60;1.00
1361;DHT22;674;45.552;-122.600;2022-09-16T04:29:17;18.50;1.00
1361;DHT22;674;45.552;-122.600;2022-09-16T04:31:45;18.50;1.00
1361;DHT22;674;45.552;-122.600;2022-09-16T04:34:13;18.50;1.00
1361;DHT22;674;45.552;-122.600;2022-09-16T04:36:42;18.40;1.00
1361;DHT22;674;45.552;-122.600;2022-09-16T04:39:10;18.40;1.00
1361;DHT22;674;45.552;-122.600;2022-09-16T04:41:39;18.40;1.00
1361;DHT22;674;45.552;-122.600;2022-09-16T04:44:09;18.40;1.00
1361;DHT22;674;45.552;-122.600;2022-09-16T04:46:38;18.30;1.00
1361;DHT22;674;45.552;-122.600;2022-09-16T04:49:07;18.40;1.00
1361;DHT22;674;45.552;-122.600;2022-09-16T04:51:35;18.30;1.00
1361;DHT22;674;45.552;-122.600;2022-09-16T04:54:04;18.30;1.00
1361;DHT22;674;45.552;-122.600;2022-09-16T04:56:33;18.30;1.00
1361;DHT22;674;45.552;-122.600;2022-09-16T04:59:03;18.30;1.00
1361;DHT22;674;45.552;-122.600;2022-09-16T05:01:36;18.30;1.00
1361;DHT22;674;45.552;-122.600;2022-09-16T05:04:06;18.20;1.00
1361;DHT22;674;45.552;-122.600;2022-09-16T05:06:37;18.10;1.00
1361;DHT22;674;45.552;-122.600;2022-09-16T05:09:08;18.10;1.00
1361;DHT22;674;45.552;-122.600;2022-09-16T05:11:39;18.10;1.00
1361;DHT22;674;45.552;-122.600;2022-09-16T05:14:11;18.10;1.00
1361;DHT22;674;45.552;-122.600;2022-09-16T05:16:40;18.20;1.00
1361;DHT22;674;45.552;-122.600;2022-09-16T05:19:10;18.10;1.00
1361;DHT22;674;45.552;-122.600;2022-09-16T05:21:40;18.00;1.00
1361;DHT22;674;45.552;-122.600;2022-09-16T05:24:11;18.00;1.00
1361;DHT22;674;45.552;-122.600;2022-09-16T05:26:41;18.00;1.00
1361;DHT22;674;45.552;-122.600;2022-09-16T05:29:12;17.90;1.00
1361;DHT22;674;45.552;-122.600;2022-09-16T05:31:42;17.90;1.00
1361;DHT22;674;45.552;-122.600;2022-09-16T05:34:17;17.80;1.00
1361;DHT22;674;45.552;-122.600;2022-09-16T05:36:46;17.80;1.00
1361;DHT22;674;45.552;-122.600;2022-09-16T05:39:16;17.70;1.00
1361;DHT22;674;45.552;-122.600;2022-09-16T05:41:56;17.60;1.00
1361;DHT22;674;45.552;-122.600;2022-09-16T05:44:26;17.70;1.00
1361;DHT22;674;45.552;-122.600;2022-09-16T05:46:55;17.70;1.00
1361;DHT22;674;45.552;-122.600;2022-09-16T05:49:24;17.60;1.00
1361;DHT22;674;45.552;-122.600;2022-09-16T05:51:52;17.70;1.00
1361;DHT22;674;45.552;-122.600;2022-09-16T05:54:21;17.50;1.00
1361;DHT22;674;45.552;-122.600;2022-09-16T05:56:52;17.50;1.00
1361;DHT22;674;45.552;-122.600;2022-09-16T05:59:20;17.50;1.00
1361;DHT22;674;45.552;-122.600;2022-09-16T06:01:50;17.50;1.00
1361;DHT22;674;45.552;-122.600;2022-09-16T06:04:19;17.40;1.00
1361;DHT22;674;45.552;-122.600;2022-09-16T06:06:48;17.40;1.00
1361;DHT22;674;45.552;-122.600;2022-09-16T06:09:21;17.40;1.00
1361;DHT22;674;45.552;-122.600;2022-09-16T06:11:51;17.40;1.00
1361;DHT22;674;45.552;-122.600;2022-09-16T06:14:28;17.30;1.00
1361;DHT22;674;45.552;-122.600;2022-09-16T06:16:56;17.20;1.00
1361;DHT22;674;45.552;-122.600;2022-09-16T06:19:25;17.20;1.00
1361;DHT22;674;45.552;-122.600;2022-09-16T06:21:53;17.20;1.00
1361;DHT22;674;45.552;-122.600;2022-09-16T06:24:22;17.20;1.00
1361;DHT22;674;45.552;-122.600;2022-09-16T06:26:50;17.30;1.00
1361;DHT22;674;45.552;-122.600;2022-09-16T06:29:19;17.20;1.00
1361;DHT22;674;45.552;-122.600;2022-09-16T06:31:48;17.20;1.00
1361;DHT22;674;45.552;-122.600;2022-09-16T06:34:17;17.20;1.00
1361;DHT22;674;45.552;-122.600;2022-09-16T06:36:45;17.20;1.00
1361;DHT22;674;45.552;-122.600;2022-09-16T06:39:15;17.20;1.00
1361;DHT22;674;45.552;-122.600;2022-09-16T06:41:44;17.10;1.00
1361;DHT22;674;45.552;-122.600;2022-09-16T06:44:12;17.10;1.00
1361;DHT22;674;45.552;-122.600;2022-09-16T06:46:41;17.10;1.00
1361;DHT22;674;45.552;-122.600;2022-09-16T06:49:11;17.00;1.00
1361;DHT22;674;45.552;-122.600;2022-09-16T06:51:40;17.00;1.00
1361;DHT22;674;45.552;-122.600;2022-09-16T06:54:09;16.90;1.00
1361;DHT22;674;45.552;-122.600;2022-09-16T06:56:38;16.90;1.00
1361;DHT22;674;45.552;-122.600;2022-09-16T06:59:09;16.80;1.00
1361;DHT22;674;45.552;-122.600;2022-09-16T07:01:38;16.80;1.00
1361;DHT22;674;45.552;-122.600;2022-09-16T07:04:08;16.60;1.00
1361;DHT22;674;45.552;-122.600;2022-09-16T07:06:42;16.60;1.00
1361;DHT22;674;45.552;-122.600;2022-09-16T07:09:32;16.70;1.00
1361;DHT22;674;45.552;-122.600;2022-09-16T07:12:01;16.60;1.00
1361;DHT22;674;45.552;-122.600;2022-09-16T07:14:30;16.60;1.00
1361;DHT22;674;45.552;-122.600;2022-09-16T07:17:02;16.50;1.00
1361;DHT22;674;45.552;-122.600;2022-09-16T07:19:30;16.40;1.00
1361;DHT22;674;45.552;-122.600;2022-09-16T07:21:58;16.30;1.00
1361;DHT22;674;45.552;-122.600;2022-09-16T07:24:27;16.20;1.00
1361;DHT22;674;45.552;-122.600;2022-09-16T07:26:55;16.20;1.00
1361;DHT22;674;45.552;-122.600;2022-09-16T07:29:24;16.10;1.00
1361;DHT22;674;45.552;-122.600;2022-09-16T07:31:52;16.10;1.00
1361;DHT22;674;45.552;-122.600;2022-09-16T07:34:21;16.00;1.00
1361;DHT22;674;45.552;-122.600;2022-09-16T07:36:49;16.00;1.00
1361;DHT22;674;45.552;-122.600;2022-09-16T07:39:19;15.90;1.00
1361;DHT22;674;45.552;-122.600;2022-09-16T07:41:48;15.90;1.00
1361;DHT22;674;45.552;-122.600;2022-09-16T07:44:18;15.90;1.00
1361;DHT22;674;45.552;-122.600;2022-09-16T07:46:47;15.80;1.00
1361;DHT22;674;45.552;-122.600;2022-09-16T07:49:18;15.80;1.00
1361;DHT22;674;45.552;-122.600;2022-09-16T07:51:46;15.70;1.00
1361;DHT22;674;45.552;-122.600;2022-09-16T07:54:16;15.80;1.00
1361;DHT22;674;45.552;-122.600;2022-09-16T07:56:47;15.80;1.00
1361;DHT22;674;45.552;-122.600;2022-09-16T07:59:17;15.80;1.00
1361;DHT22;674;45.552;-122.600;2022-09-16T08:01:47;15.90;1.00
1361;DHT22;674;45.552;-122.600;2022-09-16T08:04:17;15.90;1.00
1361;DHT22;674;45.552;-122.600;2022-09-16T08:06:46;15.90;1.00
1361;DHT22;674;45.552;-122.600;2022-09-16T08:09:15;16.10;1.00
1361;DHT22;674;45.552;-122.600;2022-09-16T08:12:04;16.10;1.00
1361;DHT22;674;45.552;-122.600;2022-09-16T08:14:35;16.10;1.00
1361;DHT22;674;45.552;-122.600;2022-09-16T08:17:03;16.10;1.00
1361;DHT22;674;45.552;-122.600;2022-09-16T08:19:32;16.20;1.00
1361;DHT22;674;45.552;-122.600;2022-09-16T08:22:01;16.10;1.00
1361;DHT22;674;45.552;-122.600;2022-09-16T08:24:30;16.20;1.00
1361;DHT22;674;45.552;-122.600;2022-09-16T08:26:58;16.10;1.00
1361;DHT22;674;45.552;-122.600;2022-09-16T08:29:26;16.10;1.00
1361;DHT22;674;45.552;-122.600;2022-09-16T08:31:55;16.20;1.00
1361;DHT22;674;45.552;-122.600;2022-09-16T08:34:24;16.20;1.00
1361;DHT22;674;45.552;-122.600;2022-09-16T08:36:52;16.20;1.00
1361;DHT22;674;45.552;-122.600;2022-09-16T08:39:21;16.30;1.00
1361;DHT22;674;45.552;-122.600;2022-09-16T08:42:05;16.30;1.00
1361;DHT22;674;45.552;-122.600;2022-09-16T08:45:15;16.30;1.00
1361;DHT22;674;45.552;-122.600;2022-09-16T08:50:51;16.20;1.00
1361;DHT22;674;45.552;-122.600;2022-09-16T08:56:04;16.20;1.00
1361;DHT22;674;45.552;-122.600;2022-09-16T08:58:41;15.90;1.00
1361;DHT22;674;45.552;-122.600;2022-09-16T09:03:50;15.50;1.00
1361;DHT22;674;45.552;-122.600;2022-09-16T09:17:08;15.30;1.00
1361;DHT22;674;45.552;-122.600;2022-09-16T09:20:08;15.10;1.00
1361;DHT22;674;45.552;-122.600;2022-09-16T09:25:34;15.00;1.00
1361;DHT22;674;45.552;-122.600;2022-09-16T09:31:39;15.00;1.00
1361;DHT22;674;45.552;-122.600;2022-09-16T09:34:36;15.00;1.00
1361;DHT22;674;45.552;-122.600;2022-09-16T09:37:44;15.00;1.00
1361;DHT22;674;45.552;-122.600;2022-09-16T09:43:22;15.00;1.00
1361;DHT22;674;45.552;-122.600;2022-09-16T09:46:00;15.00;1.00
1361;DHT22;674;45.552;-122.600;2022-09-16T09:49:20;15.00;1.00
1361;DHT22;674;45.552;-122.600;2022-09-16T09:54:34;15.00;1.00
1361;DHT22;674;45.552;-122.600;2022-09-16T10:00:11;14.90;1.00
1361;DHT22;674;45.552;-122.600;2022-09-16T10:02:43;15.00;1.00
1361;DHT22;674;45.552;-122.600;2022-09-16T10:05:23;15.10;1.00
1361;DHT22;674;45.552;-122.600;2022-09-16T10:07:55;15.00;1.00
1361;DHT22;674;45.552;-122.600;2022-09-16T10:10:26;15.00;1.00
1361;DHT22;674;45.552;-122.600;2022-09-16T10:13:09;15.00;1.00
1361;DHT22;674;45.552;-122.600;2022-09-16T10:15:39;15.00;1.00
1361;DHT22;674;45.552;-122.600;2022-09-16T10:18:18;15.00;1.00
1361;DHT22;674;45.552;-122.600;2022-09-16T10:21:05;14.90;1.00
1361;DHT22;674;45.552;-122.600;2022-09-16T10:23:35;14.90;1.00
1361;DHT22;674;45.552;-122.600;2022-09-16T10:26:24;14.80;1.00
1361;DHT22;674;45.552;-122.600;2022-09-16T10:29:16;14.90;1.00
1361;DHT22;674;45.552;-122.600;2022-09-16T10:31:46;14.80;1.00
1361;DHT22;674;45.552;-122.600;2022-09-16T10:34:37;14.80;1.00
1361;DHT22;674;45.552;-122.600;2022-09-16T10:39:57;14.90;1.00
1361;DHT22;674;45.552;-122.600;2022-09-16T10:42:27;15.00;1.00
1361;DHT22;674;45.552;-122.600;2022-09-16T10:45:12;14.90;1.00
1361;DHT22;674;45.552;-122.600;2022-09-16T10:47:48;15.00;1.00
1361;DHT22;674;45.552;-122.600;2022-09-16T10:50:18;14.90;1.00
1361;DHT22;674;45.552;-122.600;2022-09-16T10:52:48;14.90;1.00
1361;DHT22;674;45.552;-122.600;2022-09-16T10:55:21;14.90;1.00
1361;DHT22;674;45.552;-122.600;2022-09-16T10:57:52;14.90;1.00
1361;DHT22;674;45.552;-122.600;2022-09-16T11:00:28;14.90;1.00
1361;DHT22;674;45.552;-122.600;2022-09-16T11:09:07;14.80;1.00
1361;DHT22;674;45.552;-122.600;2022-09-16T11:26:12;14.70;1.00
1361;DHT22;674;45.552;-122.600;2022-09-16T11:29:14;14.70;1.00
1361;DHT22;674;45.552;-122.600;2022-09-16T11:31:57;14.70;1.00
1361;DHT22;674;45.552;-122.600;2022-09-16T11:38:28;14.70;1.00
1361;DHT22;674;45.552;-122.600;2022-09-16T11:46:45;14.70;1.00
1361;DHT22;674;45.552;-122.600;2022-09-16T11:57:37;14.90;1.00
1361;DHT22;674;45.552;-122.600;2022-09-16T12:00:13;14.80;1.00
1361;DHT22;674;45.552;-122.600;2022-09-16T12:03:22;14.80;1.00
1361;DHT22;674;45.552;-122.600;2022-09-16T12:05:58;14.90;1.00
1361;DHT22;674;45.552;-122.600;2022-09-16T12:08:53;14.90;1.00
1361;DHT22;674;45.552;-122.600;2022-09-16T12:14:12;14.80;1.00
1361;DHT22;674;45.552;-122.600;2022-09-16T12:16:46;14.70;1.00
1361;DHT22;674;45.552;-122.600;2022-09-16T12:19:40;14.70;1.00
1361;DHT22;674;45.552;-122.600;2022-09-16T12:22:40;14.70;1.00
1361;DHT22;674;45.552;-122.600;2022-09-16T12:25:21;14.60;1.00
1361;DHT22;674;45.552;-122.600;2022-09-16T12:28:11;14.60;1.00
1361;DHT22;674;45.552;-122.600;2022-09-16T12:30:45;14.50;1.00
1361;DHT22;674;45.552;-122.600;2022-09-16T12:33:30;14.60;1.00
1361;DHT22;674;45.552;-122.600;2022-09-16T12:36:08;14.60;1.00
1361;DHT22;674;45.552;-122.600;2022-09-16T12:38:38;14.60;1.00
1361;DHT22;674;45.552;-122.600;2022-09-16T12:44:23;14.60;1.00
1361;DHT22;674;45.552;-122.600;2022-09-16T12:50:14;14.60;1.00
1361;DHT22;674;45.552;-122.600;2022-09-16T12:56:08;14.50;1.00
1361;DHT22;674;45.552;-122.600;2022-09-16T13:01:50;14.50;1.00
1361;DHT22;674;45.552;-122.600;2022-09-16T13:04:33;14.60;1.00
1361;DHT22;674;45.552;-122.600;2022-09-16T13:07:06;14.60;1.00
1361;DHT22;674;45.552;-122.600;2022-09-16T13:09:37;14.70;1.00
1361;DHT22;674;45.552;-122.600;2022-09-16T13:12:26;14.60;1.00
1361;DHT22;674;45.552;-122.600;2022-09-16T13:17:53;14.60;1.00
1361;DHT22;674;45.552;-122.600;2022-09-16T13:20:31;14.50;1.00
1361;DHT22;674;45.552;-122.600;2022-09-16T13:23:17;14.60;1.00
1361;DHT22;674;45.552;-122.600;2022-09-16T13:25:55;14.50;1.00
1361;DHT22;674;45.552;-122.600;2022-09-16T13:28:35;14.50;1.00
1361;DHT22;674;45.552;-122.600;2022-09-16T13:38:58;14.50;1.00
1361;DHT22;674;45.552;-122.600;2022-09-16T13:41:38;14.50;1.00
1361;DHT22;674;45.552;-122.600;2022-09-16T13:52:35;14.40;1.00
1361;DHT22;674;45.552;-122.600;2022-09-16T13:55:15;14.40;1.00
1361;DHT22;674;45.552;-122.600;2022-09-16T13:58:05;14.30;1.00
1361;DHT22;674;45.552;-122.600;2022-09-16T14:01:21;14.40;1.00
1361;DHT22;674;45.552;-122.600;2022-09-16T14:10:09;14.00;1.00
1361;DHT22;674;45.552;-122.600;2022-09-16T14:13:00;14.00;1.00
1361;DHT22;674;45.552;-122.600;2022-09-16T14:15:35;14.20;1.00
1361;DHT22;674;45.552;-122.600;2022-09-16T14:18:12;14.30;1.00
1361;DHT22;674;45.552;-122.600;2022-09-16T14:21:02;14.30;1.00
1361;DHT22;674;45.552;-122.600;2022-09-16T14:23:32;14.20;1.00
1361;DHT22;674;45.552;-122.600;2022-09-16T14:26:24;14.30;1.00
1361;DHT22;674;45.552;-122.600;2022-09-16T14:29:02;14.50;1.00
1361;DHT22;674;45.552;-122.600;2022-09-16T14:31:32;14.60;1.00
1361;DHT22;674;45.552;-122.600;2022-09-16T14:34:05;14.70;1.00
1361;DHT22;674;45.552;-122.600;2022-09-16T14:36:38;14.80;1.00
1361;DHT22;674;45.552;-122.600;2022-09-16T14:39:16;14.90;1.00
1361;DHT22;674;45.552;-122.600;2022-09-16T14:41:57;14.90;1.00
1361;DHT22;674;45.552;-122.600;2022-09-16T14:44:38;15.00;1.00
1361;DHT22;674;45.552;-122.600;2022-09-16T14:47:14;15.10;1.00
1361;DHT22;674;45.552;-122.600;2022-09-16T14:50:19;15.40;1.00
1361;DHT22;674;45.552;-122.600;2022-09-16T14:55:32;15.70;1.00
1361;DHT22;674;45.552;-122.600;2022-09-16T14:58:03;15.80;1.00
1361;DHT22;674;45.552;-122.600;2022-09-16T15:00:42;15.80;1.00
1361;DHT22;674;45.552;-122.600;2022-09-16T15:03:28;15.80;1.00
1361;DHT22;674;45.552;-122.600;2022-09-16T15:06:03;15.90;1.00
1361;DHT22;674;45.552;-122.600;2022-09-16T15:08:47;16.00;1.00
1361;DHT22;674;45.552;-122.600;2022-09-16T15:11:22;16.00;1.00
1361;DHT22;674;45.552;-122.600;2022-09-16T15:14:12;16.20;1.00
1361;DHT22;674;45.552;-122.600;2022-09-16T15:16:57;16.40;1.00
1361;DHT22;674;45.552;-122.600;2022-09-16T15:19:36;16.40;1.00
1361;DHT22;674;45.552;-122.600;2022-09-16T15:22:07;16.40;1.00
1361;DHT22;674;45.552;-122.600;2022-09-16T15:24:41;16.70;1.00
1361;DHT22;674;45.552;-122.600;2022-09-16T15:27:11;16.70;1.00
1361;DHT22;674;45.552;-122.600;2022-09-16T15:29:51;16.90;1.00
1361;DHT22;674;45.552;-122.600;2022-09-16T15:32:21;16.80;1.00
1361;DHT22;674;45.552;-122.600;2022-09-16T15:35:17;16.90;1.00
1361;DHT22;674;45.552;-122.600;2022-09-16T15:37:46;17.00;1.00
1361;DHT22;674;45.552;-122.600;2022-09-16T15:45:43;17.10;1.00
1361;DHT22;674;45.552;-122.600;2022-09-16T15:48:19;17.20;1.00
1361;DHT22;674;45.552;-122.600;2022-09-16T15:50:53;17.50;1.00
1361;DHT22;674;45.552;-122.600;2022-09-16T15:56:08;17.40;1.00
1361;DHT22;674;45.552;-122.600;2022-09-16T15:58:46;17.50;1.00
1361;DHT22;674;45.552;-122.600;2022-09-16T16:01:33;17.40;1.00
1361;DHT22;674;45.552;-122.600;2022-09-16T16:04:06;17.40;1.00
1361;DHT22;674;45.552;-122.600;2022-09-16T16:06:58;17.40;1.00
1361;DHT22;674;45.552;-122.600;2022-09-16T16:12:07;17.50;1.00
1361;DHT22;674;45.552;-122.600;2022-09-16T16:14:39;17.70;1.00
1361;DHT22;674;45.552;-122.600;2022-09-16T16:17:19;17.80;1.00
1361;DHT22;674;45.552;-122.600;2022-09-16T16:19:48;17.90;1.00
1361;DHT22;674;45.552;-122.600;2022-09-16T16:22:17;17.90;1.00
1361;DHT22;674;45.552;-122.600;2022-09-16T16:24:47;18.20;1.00
1361;DHT22;674;45.552;-122.600;2022-09-16T16:27:15;18.10;1.00
1361;DHT22;674;45.552;-122.600;2022-09-16T16:29:44;18.20;1.00
1361;DHT22;674;45.552;-122.600;2022-09-16T16:32:14;18.60;1.00
1361;DHT22;674;45.552;-122.600;2022-09-16T16:34:45;18.70;1.00
1361;DHT22;674;45.552;-122.600;2022-09-16T16:37:14;18.30;1.00
1361;DHT22;674;45.552;-122.600;2022-09-16T16:40:05;18.30;1.00
1361;DHT22;674;45.552;-122.600;2022-09-16T16:42:34;18.80;1.00
1361;DHT22;674;45.552;-122.600;2022-09-16T16:45:03;19.00;1.00
1361;DHT22;674;45.552;-122.600;2022-09-16T16:47:31;19.30;1.00
1361;DHT22;674;45.552;-122.600;2022-09-16T16:50:00;19.40;1.00
1361;DHT22;674;45.552;-122.600;2022-09-16T16:52:28;19.60;1.00
1361;DHT22;674;45.552;-122.600;2022-09-16T16:54:56;19.60;1.00
1361;DHT22;674;45.552;-122.600;2022-09-16T16:57:25;18.70;1.00
1361;DHT22;674;45.552;-122.600;2022-09-16T16:59:53;18.80;1.00
1361;DHT22;674;45.552;-122.600;2022-09-16T17:02:22;18.90;1.00
1361;DHT22;674;45.552;-122.600;2022-09-16T17:04:50;18.80;1.00
1361;DHT22;674;45.552;-122.600;2022-09-16T17:07:19;18.90;1.00
1361;DHT22;674;45.552;-122.600;2022-09-16T17:09:54;18.90;1.00
1361;DHT22;674;45.552;-122.600;2022-09-16T17:12:24;19.00;1.00
1361;DHT22;674;45.552;-122.600;2022-09-16T17:14:53;19.00;1.00
1361;DHT22;674;45.552;-122.600;2022-09-16T17:17:21;19.00;1.00
1361;DHT22;674;45.552;-122.600;2022-09-16T17:19:56;18.80;1.00
1361;DHT22;674;45.552;-122.600;2022-09-16T17:22:25;18.80;1.00
1361;DHT22;674;45.552;-122.600;2022-09-16T17:24:53;18.80;1.00
1361;DHT22;674;45.552;-122.600;2022-09-16T17:27:22;19.00;1.00
1361;DHT22;674;45.552;-122.600;2022-09-16T17:29:53;18.80;1.00
1361;DHT22;674;45.552;-122.600;2022-09-16T17:32:22;19.10;1.00
1361;DHT22;674;45.552;-122.600;2022-09-16T17:34:50;19.40;1.00
1361;DHT22;674;45.552;-122.600;2022-09-16T17:37:19;19.40;1.00
1361;DHT22;674;45.552;-122.600;2022-09-16T17:39:47;19.60;1.00
1361;DHT22;674;45.552;-122.600;2022-09-16T17:42:16;19.60;1.00
1361;DHT22;674;45.552;-122.600;2022-09-16T17:44:44;19.30;1.00
1361;DHT22;674;45.552;-122.600;2022-09-16T17:47:13;19.60;1.00
1361;DHT22;674;45.552;-122.600;2022-09-16T17:49:41;19.90;1.00
1361;DHT22;674;45.552;-122.600;2022-09-16T17:52:10;19.70;1.00
1361;DHT22;674;45.552;-122.600;2022-09-16T17:54:38;19.90;1.00
1361;DHT22;674;45.552;-122.600;2022-09-16T17:57:08;20.20;1.00
1361;DHT22;674;45.552;-122.600;2022-09-16T17:59:36;20.20;1.00
1361;DHT22;674;45.552;-122.600;2022-09-16T18:02:04;20.30;1.00
1361;DHT22;674;45.552;-122.600;2022-09-16T18:04:34;19.70;1.00
1361;DHT22;674;45.552;-122.600;2022-09-16T18:07:04;19.30;1.00
1361;DHT22;674;45.552;-122.600;2022-09-16T18:09:32;19.70;1.00
1361;DHT22;674;45.552;-122.600;2022-09-16T18:12:01;20.40;1.00
1361;DHT22;674;45.552;-122.600;2022-09-16T18:14:29;20.10;1.00
1361;DHT22;674;45.552;-122.600;2022-09-16T18:16:58;19.70;1.00
1361;DHT22;674;45.552;-122.600;2022-09-16T18:19:26;19.90;1.00
1361;DHT22;674;45.552;-122.600;2022-09-16T18:21:55;20.30;1.00
1361;DHT22;674;45.552;-122.600;2022-09-16T18:24:23;20.70;1.00
1361;DHT22;674;45.552;-122.600;2022-09-16T18:26:52;20.80;1.00
1361;DHT22;674;45.552;-122.600;2022-09-16T18:29:20;21.30;1.00
1361;DHT22;674;45.552;-122.600;2022-09-16T18:31:49;20.70;1.00
1361;DHT22;674;45.552;-122.600;2022-09-16T18:34:19;20.90;1.00
1361;DHT22;674;45.552;-122.600;2022-09-16T18:36:47;21.40;1.00
1361;DHT22;674;45.552;-122.600;2022-09-16T18:39:16;20.70;1.00
1361;DHT22;674;45.552;-122.600;2022-09-16T18:41:45;21.30;1.00
1361;DHT22;674;45.552;-122.600;2022-09-16T18:44:19;21.40;1.00
1361;DHT22;674;45.552;-122.600;2022-09-16T18:46:48;21.70;1.00
1361;DHT22;674;45.552;-122.600;2022-09-16T18:49:18;21.40;1.00
1361;DHT22;674;45.552;-122.600;2022-09-16T18:51:50;21.40;1.00
1361;DHT22;674;45.552;-122.600;2022-09-16T18:54:24;21.00;1.00
1361;DHT22;674;45.552;-122.600;2022-09-16T18:56:56;21.00;1.00
1361;DHT22;674;45.552;-122.600;2022-09-16T18:59:30;21.40;1.00
1361;DHT22;674;45.552;-122.600;2022-09-16T19:02:00;21.00;1.00
1361;DHT22;674;45.552;-122.600;2022-09-16T19:04:36;21.20;1.00
1361;DHT22;674;45.552;-122.600;2022-09-16T19:07:06;21.30;1.00
1361;DHT22;674;45.552;-122.600;2022-09-16T19:09:36;21.60;1.00
1361;DHT22;674;45.552;-122.600;2022-09-16T19:12:09;22.00;1.00
1361;DHT22;674;45.552;-122.600;2022-09-16T19:14:38;22.50;1.00
1361;DHT22;674;45.552;-122.600;2022-09-16T19:17:08;22.60;1.00
1361;DHT22;674;45.552;-122.600;2022-09-16T19:19:36;22.50;1.00
1361;DHT22;674;45.552;-122.600;2022-09-16T19:22:05;22.30;1.00
1361;DHT22;674;45.552;-122.600;2022-09-16T19:24:33;22.40;1.00
1361;DHT22;674;45.552;-122.600;2022-09-16T19:27:02;22.30;1.00
1361;DHT22;674;45.552;-122.600;2022-09-16T19:29:30;22.50;1.00
1361;DHT22;674;45.552;-122.600;2022-09-16T19:31:59;22.30;1.00
1361;DHT22;674;45.552;-122.600;2022-09-16T19:34:28;22.70;1.00
1361;DHT22;674;45.552;-122.600;2022-09-16T19:36:57;22.70;1.00